Brooktondale, NY (14817)

8:51 PM EDT on August 30, 2014 (GMT -0400)
Durfee Hill | Change Station
CLOSE
Current Station
Personal Weather Station
Location: Danby, NY
Elevation: 1683 ft
Nearby Weather Stations

Elev 1683 ft 42.34 °N, 76.43 °W | Updated 37 seconds ago

Mostly Cloudy
Mostly Cloudy
67.0 °F
Feels Like 67.0 °F
N
6.0
Wind Variable Wind from SSE
Gusts 0.0 mph

Today
High -- | Low -- °F
--% Chance of Precip.
Yesterday
High -- | Low -- °F
Precip. -- in
6:28 AM 7:42 PM
Waxing Crescent, 26% visible
Pressure 30.07 in
Visibility 10.0 miles
Clouds Scattered Clouds 1700 ft
Dew Point 64 °F
Humidity 90%
Rainfall 0.00 in
Snow Depth Not available.
UV 0 out of 12
Pollen 8.50 out of 12
Air Quality Not available.
Flu Activity Not available.
METAR KITH 302356Z 16008KT 10SM SCT017 22/18 A3008 RMK AO2 55007 T02160183 10255 20216 SLP183

More Conditions Fewer Conditions

Pressure 30.07 in
Visibility 10.0 miles
Clouds Scattered Clouds 1700 ft
Dew Point 64 °F
Humidity 90%
Rainfall 0.00 in
Snow Depth Not available.
UV 0 out of 12
Pollen 8.50 out of 12
Air Quality Not available.
Flu Activity Not available.
METAR KITH 302356Z 16008KT 10SM SCT017 22/18 A3008 RMK AO2 55007 T02160183 10255 20216 SLP183

More Conditions Fewer Conditions

10-Day Weather Forecast

Almanac

Astronomy

Aug. 30, 2014 Rise Set
Actual Time 6:28 AM EDT 7:42 PM EDT
Civil Twilight 5:59 AM EDT 8:11 PM EDT
Nautical Twilight 5:24 AM EDT 8:46 PM EDT
Astronomical Twilight 4:47 AM EDT 9:23 PM EDT
Moon 11:20 AM EDT (8/30) 10:08 PM EDT (8/30)
Length of Visible Light 14h 12m
Length of Day
13h 14m
Tomorrow will be 2m 43s shorter.
Waxing Crescent, 26% of the Moon is Illuminated
Today
Waxing Crescent
Sep 2
First Quarter
Sep 8
Full
Sep 15
Last Quarter
Sep 24
New

Today's Extremes

State Highs State Lows

Community

WunderPhotos

Upload Photos

1,748,705 photos uploaded!

Nearby

Air Quality

  Air Quality AQ Index Pollutant
Yesterday Good
OZONE
Yesterday Good
PM2.5
Saturday Good
OZONE
Saturday Good
PM2.5
Sunday Good
PM2.5
Sunday Good
OZONE
Monday Moderate
OZONE
Monday Moderate
PM2.5
Tuesday Moderate
PM2.5
Tuesday Good
OZONE

Snow Depth

Station Depth Elevation
No new snow has been reported.

Earthquake Activity

City Distance Mag. Time & Date
No recent earthquake activity has been reported nearby.
Minimum magnitude displayed is 2.5.

Coastal Water Temperatures

Place Temperature
No Stations Reporting

Nearby Weather Stations